Time;durP1;ratioP1;P1;durP2;ratioP2;P2;SDS_P1;SDS_P2;PMS_P1;PMS_P2;Temp;Humidity;BMP_temperature;BMP_pressure;BME280_temperature;BME280_humidity;BME280_pressure;Samples;Min_cycle;Max_cycle;Signal;HPM_P1;HPM_P2
2022/06/23 00:01:27;;;;;;;4.10;2.00;;;;;;;13.81;60.19;99179.63;4969127;28;20101;-80
2022/06/23 00:03:55;;;;;;;4.55;2.15;;;;;;;13.62;60.14;99158.44;4968157;28;20133;-79
2022/06/23 00:06:36;;;;;;;2.90;2.10;;;;;;;13.69;60.23;99188.72;4964557;28;20031;-78
2022/06/23 00:09:39;;;;;;;3.30;2.13;;;;;;;13.78;60.25;99198.03;4946715;28;20042;-78
2022/06/23 00:12:28;;;;;;;4.40;2.10;;;;;;;13.76;60.27;99203.31;4967222;28;20121;-78
2022/06/23 00:15:00;;;;;;;6.22;2.60;;;;;;;13.73;60.35;99199.91;4967260;28;20042;-78
2022/06/23 00:17:28;;;;;;;;;;;;;;;13.68;60.35;99194.84;4968528;28;20387;-80
2022/06/23 00:19:56;;;;;;;5.75;2.25;;;;;;;13.62;60.40;99195.03;4968151;28;19926;-78
2022/06/23 00:22:26;;;;;;;6.32;2.65;;;;;;;13.61;60.55;99196.78;4983980;28;20385;-80
2022/06/23 00:24:56;;;;;;;3.35;2.42;;;;;;;13.62;60.41;99189.78;4971023;28;20042;-79
2022/06/23 00:27:30;;;;;;;7.70;2.92;;;;;;;13.62;60.56;99200.25;4972363;28;20081;-81
2022/06/23 00:30:03;;;;;;;5.15;2.53;;;;;;;13.60;60.64;99196.81;4968172;28;20129;-78
2022/06/23 00:32:30;;;;;;;4.03;2.72;;;;;;;13.50;60.62;99197.13;4968408;28;20042;-78
2022/06/23 00:34:59;;;;;;;6.25;2.88;;;;;;;13.55;60.67;99210.03;4981905;28;20046;-79
2022/06/23 00:37:27;;;;;;;5.40;2.65;;;;;;;13.52;60.51;99220.59;4966814;28;20061;-79
2022/06/23 00:40:00;;;;;;;5.88;2.92;;;;;;;13.49;60.96;99220.69;4968868;28;20080;-79
2022/06/23 00:42:35;;;;;;;7.68;3.13;;;;;;;13.47;61.01;99222.47;4965486;28;20062;-80
2022/06/23 00:45:10;;;;;;;4.93;2.70;;;;;;;13.44;61.27;99210.38;4965767;28;20094;-77
2022/06/23 00:47:51;;;;;;;3.88;2.90;;;;;;;13.44;61.09;99218.22;4966385;28;20385;-80
2022/06/23 00:50:23;;;;;;;27.30;4.00;;;;;;;13.44;61.31;99218.22;4967041;28;20053;-79
2022/06/23 00:53:11;;;;;;;5.32;2.80;;;;;;;13.43;61.24;99219.13;4967180;28;20711;-78
2022/06/23 00:55:57;;;;;;;4.93;2.42;;;;;;;13.46;61.15;99226.03;4967051;28;20047;-79
2022/06/23 00:58:29;;;;;;;5.90;2.40;;;;;;;13.48;61.15;99225.06;4964864;28;20617;-80
2022/06/23 01:01:26;;;;;;;3.75;2.80;;;;;;;13.49;61.19;99221.53;4965399;28;20198;-77
2022/06/23 01:04:17;;;;;;;4.97;2.58;;;;;;;13.50;61.15;99212.81;4943196;28;20114;-80
2022/06/23 01:07:23;;;;;;;6.20;2.38;;;;;;;13.35;61.08;99195.78;4936128;28;20050;-80
2022/06/23 01:10:15;;;;;;;3.15;2.47;;;;;;;13.55;60.85;99231.81;4961900;28;20043;-79
2022/06/23 01:13:00;;;;;;;6.53;2.42;;;;;;;13.45;60.84;99203.41;4964771;28;20077;-79
2022/06/23 01:15:41;;;;;;;4.03;2.50;;;;;;;13.63;61.01;99228.97;4964063;28;20165;-79
2022/06/23 01:18:22;;;;;;;4.93;2.50;;;;;;;13.66;60.51;99233.25;4964363;28;20051;-78
2022/06/23 01:21:02;;;;;;;4.72;2.35;;;;;;;13.70;60.52;99242.72;4964338;28;20066;-80
2022/06/23 01:23:59;;;;;;;5.70;2.22;;;;;;;13.72;60.43;99240.91;4952435;28;20129;-80
2022/06/23 01:26:46;;;;;;;5.45;2.22;;;;;;;13.65;60.22;99239.38;4963820;28;20079;-78
2022/06/23 01:29:15;;;;;;;4.43;2.15;;;;;;;13.50;59.84;99215.41;4962601;28;20049;-79
2022/06/23 01:31:48;;;;;;;6.53;2.42;;;;;;;13.76;60.15;99246.88;4947894;28;20035;-78
2022/06/23 01:34:18;;;;;;;7.47;2.72;;;;;;;13.69;60.16;99236.59;4962602;28;20042;-78
2022/06/23 01:36:59;;;;;;;8.95;2.13;;;;;;;13.84;60.14;99250.97;4963465;28;20038;-79
2022/06/23 01:39:25;;;;;;;5.93;2.03;;;;;;;13.85;59.97;99255.31;4963036;28;20046;-79
2022/06/23 01:42:03;;;;;;;2.97;2.03;;;;;;;12.79;60.10;99079.91;5008022;23;20107;-79
2022/06/23 01:44:36;;;;;;;5.93;1.98;;;;;;;13.91;59.75;99256.03;5002574;28;20045;-79
2022/06/23 01:47:28;;;;;;;6.85;2.20;;;;;;;13.96;59.73;99260.19;5018911;28;20049;-79
2022/06/23 01:50:33;;;;;;;3.88;2.17;;;;;;;14.02;59.42;99267.00;4991910;28;20041;-79
2022/06/23 01:53:34;;;;;;;;;;;;;;;;;;;;;
2022/06/23 01:56:36;;;;;;;4.00;2.00;;;;;;;14.15;59.32;99260.47;5025191;28;20061;-77
2022/06/23 01:59:28;;;;;;;4.80;2.60;;;;;;;14.08;59.27;99248.50;5019367;28;20510;-79
2022/06/23 02:02:00;;;;;;;8.00;2.38;;;;;;;14.22;59.19;99270.75;5035942;28;20045;-80
2022/06/23 02:04:40;;;;;;;3.63;2.22;;;;;;;14.27;58.94;99277.53;5004975;28;20506;-79
2022/06/23 02:07:14;;;;;;;5.50;2.20;;;;;;;14.24;58.99;99253.22;5018768;28;20049;-80
2022/06/23 02:09:48;;;;;;;2.97;2.05;;;;;;;14.38;58.51;99276.31;5016948;28;20419;-79
2022/06/23 02:12:22;;;;;;;4.80;2.03;;;;;;;14.45;58.49;99283.06;5019882;28;20041;-80
2022/06/23 02:15:04;;;;;;;5.00;2.38;;;;;;;14.37;58.49;99262.41;5006095;28;20524;-78
2022/06/23 02:17:47;;;;;;;5.95;2.30;;;;;;;14.49;58.39;99276.84;5016995;28;20049;-80
2022/06/23 02:20:27;;;;;;;5.40;2.30;;;;;;;14.68;58.51;99292.78;5023193;28;20033;-79
2022/06/23 02:23:28;;;;;;;5.68;2.35;;;;;;;14.78;58.25;99292.50;5018190;28;20049;-79
2022/06/23 02:26:02;;;;;;;2.95;2.30;;;;;;;14.85;57.83;99299.25;4981079;28;20071;-79
2022/06/23 02:28:33;;;;;;;3.45;1.95;;;;;;;14.89;57.72;99295.63;5017832;28;20042;-79
2022/06/23 02:31:40;;;;;;;3.72;2.00;;;;;;;14.97;57.79;99295.34;5022751;28;20045;-80
2022/06/23 02:34:14;;;;;;;3.72;2.10;;;;;;;15.05;57.62;99285.44;5002511;28;20144;-79
2022/06/23 02:37:25;;;;;;;5.20;2.42;;;;;;;15.01;57.56;99274.22;5020262;28;20037;-79
2022/06/23 02:39:56;;;;;;;4.72;2.20;;;;;;;15.17;57.05;99294.63;5018443;28;20050;-80
2022/06/23 02:42:30;;;;;;;5.23;2.13;;;;;;;15.27;57.31;99298.63;5019079;28;20050;-80
2022/06/23 02:45:26;;;;;;;4.65;2.47;;;;;;;15.34;57.02;99300.09;5005537;28;20038;-80
2022/06/23 02:48:21;;;;;;;3.53;1.98;;;;;;;15.41;56.84;99302.50;5007153;28;20234;-79
2022/06/23 02:51:02;;;;;;;5.80;2.10;;;;;;;15.49;56.94;99306.56;5007824;28;20061;-79
2022/06/23 02:53:49;;;;;;;2.85;2.03;;;;;;;15.57;56.78;99303.63;5006122;28;20129;-79
2022/06/23 02:56:16;;;;;;;9.70;2.30;;;;;;;15.66;56.81;99299.84;5006168;28;20037;-79
2022/06/23 02:58:48;;;;;;;3.38;1.98;;;;;;;15.72;56.36;99306.63;5005376;28;20049;-78
2022/06/23 03:01:26;;;;;;;10.63;2.65;;;;;;;15.67;56.59;99293.66;4987201;28;20465;-79
2022/06/23 03:04:23;;;;;;;8.90;2.20;;;;;;;15.76;56.73;99295.09;5006147;28;20069;-79
2022/06/23 03:07:31;;;;;;;5.13;2.00;;;;;;;16.02;56.29;99319.47;5005966;28;20132;-80
2022/06/23 03:10:10;;;;;;;7.28;2.50;;;;;;;16.12;55.91;99320.84;5007180;28;20052;-81
2022/06/23 03:12:39;;;;;;;3.20;2.30;;;;;;;16.16;55.88;99316.31;5008098;28;20037;-80
2022/06/23 03:15:11;;;;;;;4.75;2.00;;;;;;;16.16;55.51;99305.81;5005672;28;20060;-79
2022/06/23 03:17:43;;;;;;;;;;;;;;;16.33;55.46;99324.38;5006347;28;20487;-82
2022/06/23 03:20:19;;;;;;;4.10;2.00;;;;;;;16.36;54.95;99312.91;5004281;28;19921;-81
2022/06/23 03:22:48;;;;;;;3.13;2.30;;;;;;;16.55;55.05;99327.00;5006259;28;20064;-81
2022/06/23 03:25:37;;;;;;;2.60;2.13;;;;;;;16.73;54.52;99327.13;4984701;28;20061;-79
2022/06/23 03:28:30;;;;;;;4.32;2.25;;;;;;;16.54;54.20;99283.25;4999566;28;20046;-80
2022/06/23 03:30:56;;;;;;;;;;;;;;;17.00;54.10;99337.44;4994706;28;20050;-79
2022/06/23 03:33:27;;;;;;;3.50;2.85;;;;;;;17.10;53.89;99336.09;5012725;28;19917;-79
2022/06/23 03:36:16;;;;;;;5.72;3.00;;;;;;;17.14;53.65;99334.22;4987730;28;20045;-79
2022/06/23 03:42:23;;;;;;;5.40;3.35;;;;;;;17.34;52.92;99317.53;5006757;28;20374;-80
2022/06/23 03:45:12;;;;;;;6.28;2.35;;;;;;;17.67;52.45;99355.56;4975558;28;20056;-80
2022/06/23 03:47:44;;;;;;;3.22;2.40;;;;;;;17.81;52.39;99353.16;5009727;28;20037;-79
2022/06/23 03:50:27;;;;;;;10.75;7.35;;;;;;;17.92;52.08;99348.25;5006150;28;20044;-80
2022/06/23 03:53:16;;;;;;;4.18;2.80;;;;;;;18.01;51.82;99331.19;5005890;28;20040;-81
2022/06/23 03:56:05;;;;;;;3.20;1.98;;;;;;;18.34;51.42;99356.84;4994147;28;20112;-80
2022/06/23 03:58:31;;;;;;;8.13;3.60;;;;;;;18.50;51.23;99356.97;5007065;28;20034;-80
2022/06/23 04:01:21;;;;;;;3.15;1.98;;;;;;;18.65;50.78;99359.78;5006557;28;20446;-80
2022/06/23 04:03:57;;;;;;;4.53;3.03;;;;;;;18.77;50.64;99356.50;5006741;28;20061;-81
2022/06/23 04:06:31;;;;;;;2.15;1.80;;;;;;;18.93;50.40;99361.03;5004491;28;20065;-79
2022/06/23 04:09:24;;;;;;;5.50;2.40;;;;;;;19.11;49.92;99362.75;5002664;28;20041;-79
2022/06/23 04:12:11;;;;;;;5.82;2.10;;;;;;;19.23;49.30;99361.28;5000947;28;20042;-80
2022/06/23 04:14:37;;;;;;;4.97;2.50;;;;;;;19.36;49.31;99365.91;5004945;28;20084;-79
2022/06/23 04:17:10;;;;;;;4.18;2.22;;;;;;;19.46;48.49;99367.13;5002099;28;20042;-79
2022/06/23 04:19:38;;;;;;;2.90;2.30;;;;;;;19.56;48.21;99357.78;5003509;28;20683;-79
2022/06/23 04:22:34;;;;;;;6.55;2.00;;;;;;;19.67;48.07;99357.22;5004934;28;20061;-80
2022/06/23 04:25:02;;;;;;;6.68;2.22;;;;;;;19.76;47.88;99353.22;4988804;28;20480;-81
2022/06/23 04:27:37;;;;;;;6.07;2.28;;;;;;;19.85;47.47;99336.06;5003473;28;20045;-79
2022/06/23 04:30:05;;;;;;;3.22;2.13;;;;;;;20.07;47.75;99356.88;4985366;28;20046;-81
2022/06/23 04:32:35;;;;;;;4.05;2.08;;;;;;;20.10;46.94;99346.13;5004956;28;20045;-80
2022/06/23 04:35:10;;;;;;;5.32;1.98;;;;;;;20.36;46.75;99364.97;5000440;28;20076;-80
2022/06/23 04:37:58;;;;;;;3.35;1.88;;;;;;;20.47;46.55;99365.19;4997420;28;20046;-80
2022/06/23 04:40:33;;;;;;;3.58;2.17;;;;;;;20.59;46.57;99368.91;5004880;28;20145;-81
2022/06/23 04:43:11;;;;;;;2.88;1.80;;;;;;;20.65;45.99;99361.59;5006166;28;20557;-79
2022/06/23 04:45:56;;;;;;;2.50;1.90;;;;;;;20.79;45.85;99371.41;5006382;28;20033;-81
2022/06/23 04:48:28;;;;;;;3.83;2.00;;;;;;;20.90;45.40;99371.59;5008357;28;20069;-81
2022/06/23 04:51:07;;;;;;;4.18;1.92;;;;;;;20.96;45.53;99368.59;5005583;28;20136;-80
2022/06/23 04:53:44;;;;;;;3.85;2.10;;;;;;;21.09;45.18;99376.66;5004900;28;20049;-80
2022/06/23 04:56:17;;;;;;;3.58;2.00;;;;;;;21.21;44.90;99375.91;5004210;28;20077;-79
2022/06/23 04:58:55;;;;;;;2.88;2.10;;;;;;;21.25;44.51;99375.75;5010108;28;20128;-81
2022/06/23 05:01:35;;;;;;;2.63;2.00;;;;;;;21.36;44.76;99368.03;5008055;28;20044;-82
2022/06/23 05:04:04;;;;;;;3.05;1.88;;;;;;;21.56;44.47;99369.44;5003420;28;20870;-82
2022/06/23 05:06:33;;;;;;;6.68;2.35;;;;;;;21.76;44.33;99368.25;5005749;28;20310;-79
2022/06/23 05:09:04;;;;;;;3.25;1.83;;;;;;;21.87;43.51;99353.47;4997209;28;20049;-82
2022/06/23 05:11:43;;;;;;;4.22;1.90;;;;;;;21.90;43.50;99343.56;5015976;28;20069;-80
2022/06/23 05:14:22;;;;;;;3.75;2.13;;;;;;;22.13;43.33;99362.44;5016275;28;20045;-81
2022/06/23 05:16:53;;;;;;;3.13;1.77;;;;;;;22.18;43.14;99347.06;5015599;28;20052;-80
2022/06/23 05:19:34;;;;;;;3.20;1.95;;;;;;;22.40;42.91;99361.56;4986188;28;20074;-80
2022/06/23 05:22:09;;;;;;;5.50;2.10;;;;;;;22.39;42.50;99370.50;5013529;28;20407;-80
2022/06/23 05:24:41;;;;;;;2.70;2.03;;;;;;;22.22;41.85;99347.72;5005746;28;20037;-79
2022/06/23 05:27:36;;;;;;;3.17;1.60;;;;;;;22.39;41.37;99368.69;5007284;28;20454;-79
2022/06/23 05:30:26;;;;;;;2.03;1.30;;;;;;;22.52;41.25;99376.72;4987946;28;20050;-80
2022/06/23 05:33:04;;;;;;;3.80;1.70;;;;;;;22.63;41.36;99385.75;5002463;28;20037;-81
2022/06/23 05:35:37;;;;;;;3.17;1.70;;;;;;;22.64;41.06;99360.94;5007532;28;20077;-80
2022/06/23 05:38:15;;;;;;;2.83;1.70;;;;;;;22.86;40.56;99382.44;4988630;28;20374;-81
2022/06/23 05:41:12;;;;;;;5.65;1.85;;;;;;;22.84;40.05;99386.97;4986480;28;20066;-80
2022/06/23 05:43:46;;;;;;;3.50;1.42;;;;;;;22.78;39.29;99365.34;5007941;28;20084;-79
2022/06/23 05:46:24;;;;;;;3.70;1.42;;;;;;;23.06;38.96;99393.50;5003247;28;20049;-80
2022/06/23 05:49:04;;;;;;;2.10;1.50;;;;;;;23.24;38.59;99393.25;5018999;28;20044;-79
2022/06/23 05:51:49;;;;;;;1.73;1.48;;;;;;;23.49;37.97;99380.97;4989268;28;20069;-79
2022/06/23 05:54:21;;;;;;;2.65;1.50;;;;;;;24.31;37.38;99383.13;5004339;28;20052;-80
2022/06/23 05:57:07;;;;;;;2.05;1.70;;;;;;;25.80;36.40;99351.53;5005569;28;20037;-80
2022/06/23 06:00:00;;;;;;;1.80;1.40;;;;;;;28.33;33.56;99362.38;4989526;28;20092;-80
2022/06/23 06:02:33;;;;;;;3.00;1.50;;;;;;;30.30;30.80;99378.84;4989289;28;20050;-81
2022/06/23 06:05:01;;;;;;;3.38;1.45;;;;;;;31.89;28.47;99361.06;5004064;28;20097;-80
2022/06/23 06:07:36;;;;;;;3.45;1.83;;;;;;;33.29;26.72;99359.53;5015556;28;20095;-79
2022/06/23 06:10:13;;;;;;;3.42;1.60;;;;;;;34.56;25.31;99361.34;5013869;28;20184;-81
2022/06/23 06:12:43;;;;;;;3.42;1.50;;;;;;;35.69;23.75;99372.28;5009891;28;20546;-81
2022/06/23 06:15:36;;;;;;;2.65;1.65;;;;;;;36.45;22.28;99368.41;5010686;28;20057;-80
2022/06/23 06:18:07;;;;;;;1.98;1.40;;;;;;;37.56;20.96;99366.16;5003892;28;20085;-79
2022/06/23 06:20:34;;;;;;;3.15;1.45;;;;;;;38.48;20.15;99375.91;5010500;28;20053;-80
2022/06/23 06:23:00;;;;;;;3.78;1.63;;;;;;;39.38;19.28;99380.13;5012361;28;20045;-80
2022/06/23 06:25:33;;;;;;;3.22;1.42;;;;;;;40.32;18.48;99383.31;5010250;28;20125;-80
2022/06/23 06:28:15;;;;;;;4.47;1.65;;;;;;;41.54;16.61;99383.19;5006960;28;20040;-81
2022/06/23 06:30:54;;;;;;;2.28;1.63;;;;;;;42.00;16.70;99386.41;4990255;28;20073;-80
2022/06/23 06:33:41;;;;;;;3.55;1.77;;;;;;;42.21;15.71;99393.25;5010256;28;20069;-81
2022/06/23 06:36:31;;;;;;;2.40;1.60;;;;;;;42.80;15.21;99378.94;5020673;28;20056;-80
2022/06/23 06:39:14;;;;;;;3.80;1.50;;;;;;;43.51;14.55;99380.81;5034742;28;20034;-83
2022/06/23 06:41:44;;;;;;;3.40;1.50;;;;;;;43.54;14.60;99387.75;5023620;28;20061;-82
2022/06/23 06:44:11;;;;;;;3.42;1.70;;;;;;;43.64;13.78;99369.66;5025573;28;20042;-80
2022/06/23 06:46:39;;;;;;;5.13;1.50;;;;;;;44.45;13.42;99383.53;5028788;28;20048;-80
2022/06/23 06:49:19;;;;;;;1.88;1.63;;;;;;;44.96;13.31;99387.09;5031118;28;20054;-81
2022/06/23 06:51:45;;;;;;;;;;;;;;;45.22;12.86;99381.16;5023243;28;20145;-81
2022/06/23 06:54:18;;;;;;;1.95;1.20;;;;;;;45.45;12.79;99380.13;5005029;28;19917;-80
2022/06/23 06:56:49;;;;;;;3.85;2.50;;;;;;;46.21;12.36;99380.47;5006487;28;20048;-81
2022/06/23 06:59:25;;;;;;;4.75;1.80;;;;;;;46.43;11.65;99381.25;5005765;28;20124;-81
2022/06/23 07:01:57;;;;;;;1.98;1.50;;;;;;;46.82;10.83;99377.44;5003900;28;20046;-81
2022/06/23 07:04:29;;;;;;;2.70;2.15;;;;;;;47.54;10.54;99373.44;5021808;28;20125;-80
2022/06/23 07:07:01;;;;;;;4.10;2.50;;;;;;;47.95;10.30;99377.22;4989038;28;20049;-80
2022/06/23 07:09:43;;;;;;;6.78;5.15;;;;;;;48.06;9.83;99383.59;5004220;28;20046;-80
2022/06/23 07:12:25;;;;;;;3.53;2.40;;;;;;;47.88;9.97;99387.63;5005949;28;20236;-80
2022/06/23 07:15:19;;;;;;;3.10;2.80;;;;;;;48.17;9.49;99383.56;5017881;28;20042;-79
2022/06/23 07:17:55;;;;;;;7.55;3.42;;;;;;;47.56;9.57;99380.34;4978190;28;20172;-79
2022/06/23 07:20:42;;;;;;;5.95;4.22;;;;;;;47.87;9.72;99391.50;4985713;28;20049;-79
2022/06/23 07:23:19;;;;;;;2.78;2.28;;;;;;;47.86;9.78;99384.31;5006499;28;20049;-80
2022/06/23 07:25:50;;;;;;;2.05;1.95;;;;;;;48.57;9.17;99389.41;5005143;28;20037;-79
2022/06/23 07:28:35;;;;;;;4.60;1.60;;;;;;;48.25;8.98;99385.81;5011138;28;20041;-80
2022/06/23 07:31:39;;;;;;;3.10;2.33;;;;;;;48.76;8.93;99393.28;5005076;28;20057;-82
2022/06/23 07:34:10;;;;;;;4.53;2.88;;;;;;;49.25;8.96;99389.06;5004098;28;20573;-82
2022/06/23 07:36:50;;;;;;;7.68;6.80;;;;;;;49.25;8.77;99396.53;4997192;28;20073;-81
2022/06/23 07:39:21;;;;;;;3.67;3.38;;;;;;;49.15;9.28;99403.72;5006560;28;20132;-81
2022/06/23 07:42:05;;;;;;;6.13;5.53;;;;;;;49.37;8.81;99410.84;5002835;28;20140;-82
2022/06/23 07:44:41;;;;;;;4.07;2.08;;;;;;;49.10;9.19;99412.03;5006067;28;20526;-82
2022/06/23 07:47:07;;;;;;;6.18;5.68;;;;;;;49.28;8.06;99409.78;5005687;28;20046;-83
2022/06/23 07:49:34;;;;;;;5.18;3.67;;;;;;;49.70;8.04;99386.44;5001294;28;20042;-81
2022/06/23 07:52:01;;;;;;;3.45;1.83;;;;;;;48.94;7.99;99404.84;5007133;28;20046;-80
2022/06/23 07:54:28;;;;;;;3.53;2.22;;;;;;;48.99;7.93;99400.16;5005866;28;20176;-79
2022/06/23 07:56:55;;;;;;;2.92;2.00;;;;;;;49.18;8.27;99385.78;4997906;28;20473;-79
2022/06/23 07:59:37;;;;;;;1.92;1.80;;;;;;;48.80;8.19;99391.63;5003869;28;20470;-80
2022/06/23 08:02:15;;;;;;;2.65;2.00;;;;;;;48.67;8.69;99390.25;5003987;28;20048;-81
2022/06/23 08:04:44;;;;;;;3.63;3.28;;;;;;;49.01;8.56;99410.91;5001129;28;20072;-81
2022/06/23 08:07:12;;;;;;;4.10;3.72;;;;;;;49.70;8.36;99403.00;5005604;28;20516;-82
2022/06/23 08:09:48;;;;;;;3.90;2.80;;;;;;;50.12;8.15;99408.31;5000807;28;20049;-80
2022/06/23 08:18:26;;;;;;;1.98;1.80;;;;;;;50.60;8.12;99397.50;4999871;28;20064;-81
2022/06/23 08:21:20;;;;;;;18.75;17.02;;;;;;;51.50;7.27;99396.28;4998366;28;20506;-81
2022/06/23 08:23:52;;;;;;;2.55;1.88;;;;;;;50.19;8.02;99397.78;4999994;28;20052;-81
2022/06/23 08:26:22;;;;;;;3.05;2.13;;;;;;;50.95;7.20;99403.00;5005944;28;20073;-81
2022/06/23 08:28:52;;;;;;;3.72;2.72;;;;;;;51.18;7.15;99420.72;5004569;28;20514;-81
2022/06/23 08:31:19;;;;;;;3.55;1.73;;;;;;;49.91;7.08;99408.44;5006655;28;20100;-82
2022/06/23 08:33:45;;;;;;;3.25;2.40;;;;;;;50.05;7.44;99400.34;5012261;28;20423;-81
2022/06/23 08:36:19;;;;;;;2.83;1.80;;;;;;;50.66;7.66;99408.47;5006545;28;20041;-81
2022/06/23 08:38:57;;;;;;;2.15;1.88;;;;;;;51.32;6.89;99407.03;5004323;28;20131;-80
2022/06/23 08:41:46;;;;;;;4.38;3.15;;;;;;;52.04;6.96;99416.38;5022430;28;20341;-81
2022/06/23 08:44:23;;;;;;;4.10;2.10;;;;;;;52.32;6.58;99382.41;5009492;28;20038;-81
2022/06/23 08:46:58;;;;;;;2.22;2.10;;;;;;;52.76;6.04;99408.03;4988320;28;20029;-81
2022/06/23 08:49:39;;;;;;;4.32;2.25;;;;;;;52.62;6.71;99411.63;5013043;28;20191;-81
2022/06/23 08:52:08;;;;;;;4.40;2.30;;;;;;;52.07;6.74;99403.88;4990455;28;20554;-81
2022/06/23 08:54:54;;;;;;;2.50;2.30;;;;;;;51.92;7.02;99402.16;5006037;28;20049;-82
2022/06/23 08:57:24;;;;;;;3.47;2.30;;;;;;;51.57;6.70;99404.25;5000509;28;20050;-80
2022/06/23 09:00:17;;;;;;;3.08;2.40;;;;;;;51.24;6.59;99393.81;5006485;28;20046;-80
2022/06/23 09:03:00;;;;;;;25.17;22.92;;;;;;;50.93;7.22;99383.88;4985576;28;20058;-80
2022/06/23 09:05:44;;;;;;;2.17;1.92;;;;;;;50.91;7.73;99401.91;5005569;28;20065;-80
2022/06/23 09:08:20;;;;;;;5.13;3.80;;;;;;;51.06;6.95;99393.44;5001846;28;20065;-80
2022/06/23 09:11:05;;;;;;;5.30;1.98;;;;;;;50.57;7.46;99413.81;5008021;28;20038;-82
2022/06/23 09:13:40;;;;;;;3.00;2.33;;;;;;;50.55;7.60;99400.28;5007072;28;20142;-81
2022/06/23 09:16:19;;;;;;;6.45;3.28;;;;;;;51.15;6.89;99407.47;5005848;28;20057;-81
2022/06/23 09:19:22;;;;;;;2.40;2.20;;;;;;;50.90;6.88;99401.09;4999998;28;20045;-81
2022/06/23 09:22:06;;;;;;;2.75;1.92;;;;;;;50.17;7.11;99419.38;4947274;29;20531;-82
2022/06/23 09:24:42;;;;;;;3.80;2.60;;;;;;;50.38;6.90;99389.59;4999156;28;20084;-81
2022/06/23 09:27:42;;;;;;;3.50;2.53;;;;;;;49.83;7.71;99411.78;5003614;28;20532;-80
2022/06/23 09:30:30;;;;;;;3.25;2.00;;;;;;;49.51;7.77;99413.03;4987787;28;20034;-81
2022/06/23 09:33:04;;;;;;;3.10;2.63;;;;;;;49.74;8.00;99409.63;5001480;28;20043;-80
2022/06/23 09:35:49;;;;;;;2.63;2.42;;;;;;;50.40;7.95;99412.28;5004753;28;20050;-81
2022/06/23 09:38:42;;;;;;;2.55;2.35;;;;;;;50.27;7.37;99404.66;5006231;28;20042;-82
2022/06/23 09:41:32;;;;;;;3.47;2.05;;;;;;;50.65;7.48;99415.97;4932581;29;20054;-81
2022/06/23 09:44:12;;;;;;;6.35;2.67;;;;;;;50.98;7.42;99412.63;5007411;28;20132;-82
2022/06/23 09:47:13;;;;;;;3.33;2.30;;;;;;;51.18;7.61;99423.50;5007365;28;20033;-81
2022/06/23 09:50:16;;;;;;;2.40;2.22;;;;;;;50.08;7.85;99424.66;4999583;28;20084;-82
2022/06/23 09:53:04;;;;;;;3.13;2.80;;;;;;;49.21;8.13;99428.56;5002790;28;20061;-82
2022/06/23 09:55:41;;;;;;;4.03;2.40;;;;;;;48.70;8.43;99420.06;4973146;28;20175;-82
2022/06/23 09:58:28;;;;;;;3.13;2.38;;;;;;;49.63;8.01;99421.00;5005947;28;20073;-80
2022/06/23 10:01:37;;;;;;;32.97;30.25;;;;;;;50.34;7.51;99421.72;4987030;28;20050;-80
2022/06/23 10:04:37;;;;;;;4.43;3.60;;;;;;;49.76;7.60;99383.66;5007132;28;20037;-81
2022/06/23 10:07:30;;;;;;;4.00;2.50;;;;;;;49.61;8.00;99414.94;5010576;28;20132;-81
2022/06/23 10:10:26;;;;;;;4.32;2.67;;;;;;;49.02;7.89;99418.09;5000084;28;20033;-81
2022/06/23 10:13:01;;;;;;;3.05;2.08;;;;;;;48.99;7.89;99415.88;4992208;28;20093;-82
2022/06/23 10:15:45;;;;;;;8.52;7.80;;;;;;;49.01;7.79;99424.72;5005231;28;20181;-81
2022/06/23 10:18:30;;;;;;;4.43;2.40;;;;;;;48.62;7.50;99423.34;5000655;28;20103;-81
2022/06/23 10:21:08;;;;;;;3.83;2.00;;;;;;;48.09;8.25;99420.78;5007640;28;20121;-82
2022/06/23 10:23:56;;;;;;;8.70;7.80;;;;;;;47.54;8.80;99423.88;5001220;28;20041;-81
2022/06/23 10:26:42;;;;;;;4.05;2.92;;;;;;;46.91;9.00;99419.88;5006645;28;20060;-81
2022/06/23 10:30:02;;;;;;;4.32;2.13;;;;;;;44.35;10.01;99428.81;5002207;28;20103;-80
2022/06/23 10:32:48;;;;;;;2.92;2.40;;;;;;;41.88;11.36;99413.63;4983220;28;20592;-82
2022/06/23 10:35:28;;;;;;;2.35;1.80;;;;;;;40.36;11.90;99421.84;4982674;28;20068;-80
2022/06/23 10:38:22;;;;;;;;;;;;;;;39.04;12.78;99420.06;5005718;28;20046;-81
2022/06/23 10:41:10;;;;;;;5.50;3.10;;;;;;;37.65;13.92;99421.94;5006187;28;19929;-82
2022/06/23 10:44:46;;;;;;;5.45;3.40;;;;;;;36.45;14.46;99430.69;5005696;28;20123;-81
2022/06/23 10:47:50;;;;;;;9.55;4.63;;;;;;;35.50;15.77;99426.94;5005316;28;20073;-80
2022/06/23 10:51:04;;;;;;;5.30;2.30;;;;;;;34.72;16.38;99406.31;5002159;28;20065;-80
2022/06/23 10:53:48;;;;;;;3.50;2.00;;;;;;;33.67;17.04;99427.19;5003812;28;20465;-81
2022/06/23 10:56:27;;;;;;;5.88;2.20;;;;;;;33.17;18.04;99429.94;5001843;28;20077;-82
2022/06/23 10:59:36;;;;;;;2.20;2.00;;;;;;;32.43;18.27;99416.41;4989050;28;20125;-81
2022/06/23 11:02:38;;;;;;;7.13;5.70;;;;;;;32.13;19.22;99435.63;5004495;28;20037;-79
2022/06/23 11:05:44;;;;;;;2.55;2.15;;;;;;;31.67;19.17;99437.72;5006282;28;20038;-81
2022/06/23 11:08:23;;;;;;;11.05;9.32;;;;;;;31.25;20.10;99426.72;4992939;28;20073;-80
2022/06/23 11:11:27;;;;;;;4.85;2.05;;;;;;;30.74;20.82;99418.38;5004288;28;20042;-80
2022/06/23 11:14:08;;;;;;;6.63;3.05;;;;;;;30.51;21.05;99436.75;4972680;28;20418;-80
2022/06/23 11:16:50;;;;;;;3.35;2.33;;;;;;;30.23;64.74;99442.16;5002571;28;20149;-79
2022/06/23 11:19:46;;;;;;;21.38;15.57;;;;;;;30.09;21.83;99445.34;5004429;28;20042;-80
2022/06/23 11:22:39;;;;;;;16.73;11.52;;;;;;;29.82;22.20;99442.44;5005958;28;20042;-79
2022/06/23 11:25:29;;;;;;;4.75;2.33;;;;;;;29.53;22.56;99450.56;5002022;28;20120;-79
2022/06/23 11:28:14;;;;;;;4.70;3.17;;;;;;;29.15;22.85;99431.72;4992199;28;20052;-80
2022/06/23 11:31:03;;;;;;;3.65;2.63;;;;;;;28.93;23.41;99451.59;5006757;28;20037;-80
2022/06/23 11:33:54;;;;;;;3.60;2.20;;;;;;;28.67;23.52;99452.97;4999518;28;20094;-80
2022/06/23 11:36:55;;;;;;;2.50;2.20;;;;;;;28.40;23.51;99445.59;5012729;28;20068;-80
2022/06/23 11:39:52;;;;;;;4.37;2.20;;;;;;;28.14;24.12;99447.91;4982430;28;20034;-82
2022/06/23 11:46:22;;;;;;;3.40;2.20;;;;;;;27.74;24.78;99452.22;4980322;28;20133;-81
2022/06/23 11:49:19;;;;;;;3.15;2.08;;;;;;;27.59;25.07;99446.34;5005315;28;20372;-80
2022/06/23 11:51:57;;;;;;;5.07;2.65;;;;;;;27.60;24.66;99456.94;5005298;28;20067;-80
2022/06/23 11:54:45;;;;;;;5.10;4.22;;;;;;;27.21;25.27;99419.28;5003170;28;20237;-80
2022/06/23 11:57:39;;;;;;;3.25;2.35;;;;;;;27.29;26.07;99459.50;5003775;28;20049;-79
2022/06/23 12:00:08;;;;;;;3.78;2.38;;;;;;;27.19;25.84;99461.28;5004535;28;20050;-80
2022/06/23 12:03:02;;;;;;;2.70;2.25;;;;;;;27.03;26.17;99457.19;4983338;28;20041;-80
2022/06/23 12:05:31;;;;;;;7.13;2.63;;;;;;;27.00;26.60;99468.16;5003202;28;20491;-79
2022/06/23 12:08:24;;;;;;;3.47;2.50;;;;;;;26.93;26.56;99469.63;4999285;28;20362;-79
2022/06/23 12:10:50;;;;;;;4.88;2.42;;;;;;;26.78;26.83;99453.03;5004116;28;20049;-79
2022/06/23 12:13:24;;;;;;;5.63;2.20;;;;;;;26.65;27.16;99444.34;5006415;28;20472;-79
2022/06/23 12:15:54;;;;;;;3.20;2.10;;;;;;;26.64;26.92;99456.81;5004981;28;20034;-79
2022/06/23 12:18:44;;;;;;;6.95;3.67;;;;;;;26.68;27.21;99468.13;4983351;28;20033;-79
2022/06/23 12:21:35;;;;;;;3.03;2.25;;;;;;;26.62;27.20;99469.44;5007150;28;20141;-78
2022/06/23 12:24:20;;;;;;;9.75;2.42;;;;;;;26.58;26.83;99473.34;5008172;28;20515;-79
2022/06/23 12:26:58;;;;;;;3.40;2.30;;;;;;;26.43;27.36;99459.44;5004690;28;20463;-79
2022/06/23 12:30:02;;;;;;;4.35;2.53;;;;;;;26.53;27.45;99462.22;4982714;28;20557;-80
2022/06/23 12:32:58;;;;;;;6.20;2.90;;;;;;;26.48;27.52;99475.06;4966306;28;20050;-79
2022/06/23 12:35:36;;;;;;;4.32;2.63;;;;;;;26.17;27.56;99451.72;5001290;28;20045;-80
2022/06/23 12:38:14;;;;;;;5.97;2.90;;;;;;;26.25;27.55;99475.94;4999496;28;20438;-79
2022/06/23 12:40:53;;;;;;;4.25;2.30;;;;;;;26.22;27.90;99480.66;5004117;28;20046;-80
2022/06/23 12:43:38;;;;;;;5.72;2.35;;;;;;;26.08;28.53;99474.59;4983403;28;20038;-79
2022/06/23 12:47:03;;;;;;;4.60;2.80;;;;;;;25.98;28.56;99462.94;4979903;28;20045;-79
2022/06/23 12:50:05;;;;;;;5.95;3.40;;;;;;;26.00;28.83;99474.34;4950938;29;20158;-79
2022/06/23 12:52:57;;;;;;;3.15;2.85;;;;;;;25.85;28.28;99463.06;4951092;28;20051;-80
2022/06/23 12:55:42;;;;;;;4.30;2.90;;;;;;;25.85;28.73;99485.22;4964581;28;20039;-80
2022/06/23 12:58:23;;;;;;;4.25;2.70;;;;;;;25.80;28.70;99484.75;4982954;28;20141;-80